createdAt,value
2022-12-25T00:05:55.149Z,14.48
2022-12-25T00:08:22.053Z,14.43
2022-12-25T00:10:53.700Z,14.05
2022-12-25T00:13:24.110Z,13.75
2022-12-25T00:15:51.954Z,14.17
2022-12-25T00:18:18.520Z,13.93
2022-12-25T00:20:45.813Z,13.32
2022-12-25T00:23:12.932Z,13.57
2022-12-25T00:25:41.419Z,13.66
2022-12-25T00:28:10.270Z,12.90
2022-12-25T00:30:38.039Z,12.59
2022-12-25T00:33:07.844Z,12.18
2022-12-25T00:35:36.137Z,12.56
2022-12-25T00:38:03.262Z,12.12
2022-12-25T00:40:29.789Z,12.59
2022-12-25T00:42:56.348Z,12.86
2022-12-25T00:45:23.124Z,13.00
2022-12-25T00:47:50.182Z,13.28
2022-12-25T00:50:16.749Z,13.40
2022-12-25T00:52:43.733Z,13.31
2022-12-25T00:55:10.467Z,12.63
2022-12-25T00:57:37.433Z,13.04
2022-12-25T01:00:04.010Z,13.30
2022-12-25T01:02:31.061Z,13.20
2022-12-25T01:04:57.633Z,13.03
2022-12-25T01:07:24.260Z,13.28
2022-12-25T01:09:51.222Z,13.74
2022-12-25T01:12:18.163Z,13.29
2022-12-25T01:14:44.974Z,13.68
2022-12-25T01:17:11.813Z,13.98
2022-12-25T01:19:38.464Z,14.32
2022-12-25T01:22:05.682Z,14.44
2022-12-25T01:24:32.440Z,14.59
2022-12-25T01:26:59.406Z,14.65
2022-12-25T01:29:26.161Z,14.75
2022-12-25T01:31:53.707Z,14.87
2022-12-25T01:34:20.611Z,14.93
2022-12-25T01:36:47.559Z,14.93
2022-12-25T01:39:15.153Z,14.86
2022-12-25T01:41:41.691Z,14.30
2022-12-25T01:44:09.085Z,14.60
2022-12-25T01:46:36.561Z,14.27
2022-12-25T01:49:03.361Z,14.48
2022-12-25T01:51:30.284Z,14.76
2022-12-25T01:53:57.743Z,14.83
2022-12-25T01:56:24.293Z,14.89
2022-12-25T01:58:51.837Z,14.75
2022-12-25T02:01:19.260Z,14.83
2022-12-25T02:03:46.052Z,14.57
2022-12-25T02:06:12.994Z,14.21
2022-12-25T02:08:39.670Z,13.70
2022-12-25T02:11:07.231Z,14.25
2022-12-25T02:13:34.102Z,14.45
2022-12-25T02:19:04.639Z,14.53
2022-12-25T02:21:31.548Z,14.60
2022-12-25T02:23:58.336Z,14.63
2022-12-25T02:26:25.324Z,14.17
2022-12-25T02:28:52.431Z,14.05
2022-12-25T02:31:19.334Z,14.31
2022-12-25T02:33:47.189Z,14.37
2022-12-25T02:42:19.636Z,13.43
2022-12-25T02:44:46.198Z,13.97
2022-12-25T02:47:14.010Z,14.17
2022-12-25T02:49:41.026Z,14.22
2022-12-25T02:52:08.019Z,14.21
2022-12-25T02:54:35.846Z,14.23
2022-12-25T02:57:02.635Z,14.02
2022-12-25T02:59:31.795Z,14.10
2022-12-25T03:01:58.640Z,14.00
2022-12-25T03:04:25.523Z,13.98
2022-12-25T03:06:52.428Z,14.06
2022-12-25T03:09:21.275Z,14.07
2022-12-25T03:11:48.260Z,13.82
2022-12-25T03:14:17.132Z,13.95
2022-12-25T03:16:45.601Z,13.59
2022-12-25T03:19:12.608Z,13.88
2022-12-25T03:21:41.178Z,13.89
2022-12-25T03:26:37.383Z,13.69
2022-12-25T03:29:04.334Z,13.68
2022-12-25T03:31:31.625Z,13.76
2022-12-25T03:33:59.608Z,13.80
2022-12-25T03:36:27.029Z,13.51
2022-12-25T03:38:54.938Z,12.79
2022-12-25T03:41:23.605Z,12.45
2022-12-25T03:43:50.506Z,12.53
2022-12-25T03:46:17.961Z,12.40
2022-12-25T03:48:45.599Z,12.87
2022-12-25T03:51:14.035Z,13.22
2022-12-25T03:53:40.833Z,12.61
2022-12-25T03:56:07.744Z,12.41
2022-12-25T03:58:34.517Z,12.57
2022-12-25T04:01:01.516Z,12.64
2022-12-25T04:03:28.415Z,12.35
2022-12-25T04:05:55.387Z,12.77
2022-12-25T04:08:23.189Z,11.74
2022-12-25T04:10:54.936Z,12.09
2022-12-25T04:13:42.610Z,12.56
2022-12-25T04:16:30.100Z,12.71
2022-12-25T04:19:19.231Z,12.51
2022-12-25T04:21:56.941Z,11.87
2022-12-25T04:24:24.399Z,11.51
2022-12-25T04:26:51.345Z,11.13
2022-12-25T04:29:18.106Z,11.22
2022-12-25T04:31:44.967Z,11.54
2022-12-25T04:34:12.687Z,11.24
2022-12-25T04:36:39.559Z,11.07
2022-12-25T04:41:58.890Z,11.84
2022-12-25T04:44:26.552Z,12.17
2022-12-25T04:46:53.469Z,11.85
2022-12-25T04:49:20.145Z,11.86
2022-12-25T04:51:47.208Z,11.34
2022-12-25T04:54:13.897Z,10.73
2022-12-25T04:56:46.020Z,10.99
2022-12-25T05:02:22.936Z,11.24
2022-12-25T05:04:50.826Z,11.32
2022-12-25T05:07:21.776Z,11.11
2022-12-25T05:09:49.500Z,11.63
2022-12-25T05:12:17.285Z,11.54
2022-12-25T05:17:53.648Z,11.66
2022-12-25T05:20:21.095Z,11.17
2022-12-25T05:22:47.609Z,11.13
2022-12-25T05:25:15.103Z,11.21
2022-12-25T05:27:41.830Z,11.57
2022-12-25T05:30:08.370Z,11.83
2022-12-25T05:32:35.422Z,12.11
2022-12-25T05:35:02.167Z,12.44
2022-12-25T05:37:29.171Z,12.61
2022-12-25T05:39:56.049Z,12.14
2022-12-25T05:42:22.993Z,12.26
2022-12-25T05:44:49.719Z,12.14
2022-12-25T05:47:16.381Z,12.44
2022-12-25T05:49:43.860Z,12.41
2022-12-25T05:52:10.834Z,12.32
2022-12-25T05:54:38.490Z,12.59
2022-12-25T05:57:05.703Z,12.79
2022-12-25T05:59:32.298Z,12.20
2022-12-25T06:02:01.065Z,11.62
2022-12-25T06:04:28.255Z,11.23
2022-12-25T06:06:57.178Z,10.86
2022-12-25T06:12:39.910Z,11.38
2022-12-25T06:15:10.275Z,10.99
2022-12-25T06:17:37.031Z,10.87
2022-12-25T06:20:04.026Z,11.15
2022-12-25T06:22:31.009Z,11.70
2022-12-25T06:24:58.052Z,11.75
2022-12-25T06:27:24.755Z,12.00
2022-12-25T06:29:51.657Z,11.97
2022-12-25T06:32:22.036Z,11.91
2022-12-25T06:34:48.861Z,11.78
2022-12-25T06:40:25.101Z,11.50
2022-12-25T06:42:51.712Z,11.35
2022-12-25T06:45:18.456Z,11.50
2022-12-25T06:47:45.139Z,11.67
2022-12-25T06:50:12.409Z,11.89
2022-12-25T06:52:39.106Z,12.58
2022-12-25T06:55:06.356Z,12.83
2022-12-25T06:57:33.804Z,13.13
2022-12-25T07:00:00.747Z,13.06
2022-12-25T07:02:29.375Z,12.83
2022-12-25T07:04:59.274Z,13.02
2022-12-25T07:07:25.885Z,12.91
2022-12-25T07:09:52.834Z,12.61
2022-12-25T07:12:19.641Z,12.29
2022-12-25T07:14:46.374Z,12.18
2022-12-25T07:20:22.140Z,12.38
2022-12-25T07:22:49.228Z,12.33
2022-12-25T07:25:16.053Z,12.55
2022-12-25T07:27:43.086Z,12.68
2022-12-25T07:30:13.112Z,12.30
2022-12-25T07:32:40.961Z,11.88
2022-12-25T07:38:25.290Z,11.93
2022-12-25T07:40:52.288Z,12.17
2022-12-25T07:43:19.240Z,12.00
2022-12-25T07:45:49.578Z,11.81
2022-12-25T07:48:17.205Z,11.35
2022-12-25T07:50:44.265Z,11.06
2022-12-25T07:53:13.470Z,11.48
2022-12-25T07:55:40.149Z,11.89
2022-12-25T07:58:07.104Z,12.50
2022-12-25T08:00:34.386Z,13.25
2022-12-25T08:03:01.448Z,13.53
2022-12-25T08:05:30.831Z,13.62
2022-12-25T08:08:00.832Z,13.98
2022-12-25T08:10:29.252Z,13.98
2022-12-25T08:12:56.208Z,14.11
2022-12-25T08:15:29.922Z,13.93
2022-12-25T08:17:56.741Z,14.24
2022-12-25T08:20:23.723Z,14.34
2022-12-25T08:22:51.236Z,14.42
2022-12-25T08:25:18.180Z,14.16
2022-12-25T08:27:45.679Z,14.29
2022-12-25T08:30:12.571Z,14.36
2022-12-25T08:32:42.290Z,14.47
2022-12-25T08:35:09.671Z,14.68
2022-12-25T08:37:39.491Z,14.34
2022-12-25T08:40:07.695Z,14.34
2022-12-25T08:42:34.565Z,14.52
2022-12-25T08:45:01.548Z,14.65
2022-12-25T08:47:28.357Z,13.49
2022-12-25T08:49:56.671Z,13.33
2022-12-25T08:52:23.824Z,13.39
2022-12-25T08:54:50.680Z,14.00
2022-12-25T08:57:17.625Z,14.17
2022-12-25T09:02:54.313Z,14.47
2022-12-25T09:05:24.134Z,14.70
2022-12-25T09:07:55.481Z,14.88
2022-12-25T09:10:22.582Z,14.81
2022-12-25T09:12:50.349Z,14.91
2022-12-25T09:15:17.328Z,15.01
2022-12-25T09:17:45.840Z,14.74
2022-12-25T09:20:14.894Z,13.14
2022-12-25T09:22:43.856Z,13.15
2022-12-25T09:25:11.873Z,12.85
2022-12-25T09:27:40.989Z,12.86
2022-12-25T09:30:10.608Z,13.08
2022-12-25T09:32:37.354Z,13.51
2022-12-25T09:35:03.964Z,13.08
2022-12-25T09:40:18.041Z,14.20
2022-12-25T09:42:44.748Z,13.67
2022-12-25T09:45:12.222Z,14.07
2022-12-25T09:47:39.194Z,13.59
2022-12-25T09:50:08.255Z,13.67
2022-12-25T09:52:34.854Z,13.92
2022-12-25T09:55:05.113Z,13.48
2022-12-25T09:57:33.700Z,14.25
2022-12-25T10:03:00.419Z,14.75
2022-12-25T10:11:37.222Z,14.93
2022-12-25T10:14:15.792Z,14.73
2022-12-25T10:16:49.582Z,15.07
2022-12-25T10:19:17.079Z,14.84
2022-12-25T10:21:47.710Z,14.41
2022-12-25T10:24:26.877Z,14.69
2022-12-25T10:29:48.801Z,15.19
2022-12-25T10:32:28.935Z,15.15
2022-12-25T10:34:59.262Z,15.17
2022-12-25T10:37:35.257Z,15.28
2022-12-25T10:40:13.257Z,15.40
2022-12-25T10:42:44.075Z,15.60
2022-12-25T10:45:17.763Z,15.71
2022-12-25T10:48:18.898Z,14.98
2022-12-25T10:50:46.063Z,14.83
2022-12-25T10:53:15.203Z,15.24
2022-12-25T10:55:53.521Z,15.63
2022-12-25T10:58:21.243Z,15.64
2022-12-25T11:01:04.310Z,15.53
2022-12-25T11:03:48.589Z,15.53
2022-12-25T11:06:23.188Z,15.45
2022-12-25T11:08:56.825Z,15.46
2022-12-25T11:11:40.664Z,15.55
2022-12-25T11:14:12.050Z,15.43
2022-12-25T11:16:41.407Z,14.73
2022-12-25T11:19:21.026Z,15.16
2022-12-25T11:21:49.859Z,15.11
2022-12-25T11:25:55.400Z,14.77
2022-12-25T11:27:19.730Z,13.94
2022-12-25T11:30:14.269Z,14.88
2022-12-25T11:32:49.031Z,15.07
2022-12-25T11:35:18.320Z,15.45
2022-12-25T11:37:48.444Z,15.60
2022-12-25T11:40:25.046Z,15.87
2022-12-25T11:42:52.945Z,15.80
2022-12-25T11:48:07.187Z,15.81
2022-12-25T11:50:34.019Z,15.98
2022-12-25T11:53:29.825Z,16.08
2022-12-25T11:55:59.513Z,15.65
2022-12-25T12:04:42.642Z,15.54
2022-12-25T12:07:15.709Z,15.28
2022-12-25T12:09:50.946Z,15.37
2022-12-25T12:12:27.604Z,15.20
2022-12-25T12:17:59.733Z,15.55
2022-12-25T12:20:29.701Z,15.92
2022-12-25T12:25:50.660Z,15.43
2022-12-25T12:28:22.841Z,15.69
2022-12-25T12:30:52.840Z,15.46
2022-12-25T12:33:39.206Z,15.65
2022-12-25T12:36:06.478Z,15.67
2022-12-25T12:41:50.636Z,15.44
2022-12-25T12:47:18.036Z,15.77
2022-12-25T12:49:53.556Z,15.90
2022-12-25T12:52:45.779Z,15.67
2022-12-25T12:58:06.511Z,15.73
2022-12-25T13:00:49.094Z,15.17
2022-12-25T13:03:17.329Z,15.18
2022-12-25T13:06:14.982Z,15.35
2022-12-25T13:09:17.682Z,15.65
2022-12-25T13:14:35.315Z,15.24
2022-12-25T13:17:06.155Z,15.07
2022-12-25T13:22:57.889Z,15.22
2022-12-25T13:34:09.759Z,15.60
2022-12-25T13:37:28.531Z,15.75
2022-12-25T13:39:41.737Z,16.01
2022-12-25T13:42:11.151Z,15.67
2022-12-25T13:47:26.608Z,15.68
2022-12-25T13:56:14.023Z,15.82
2022-12-25T14:01:31.794Z,15.72
2022-12-25T14:03:58.676Z,15.35
2022-12-25T14:06:25.216Z,15.61
2022-12-25T14:08:51.861Z,15.49
2022-12-25T14:11:26.000Z,15.50
2022-12-25T14:14:06.295Z,15.51
2022-12-25T14:16:39.965Z,15.59
2022-12-25T14:25:34.752Z,15.60
2022-12-25T14:30:45.679Z,15.47
2022-12-25T14:36:03.327Z,15.54
2022-12-25T14:38:50.790Z,15.55
2022-12-25T14:41:26.324Z,15.57
2022-12-25T14:47:41.418Z,15.41
2022-12-25T14:50:14.149Z,15.62
2022-12-25T14:52:46.711Z,15.80
2022-12-25T14:58:02.483Z,15.26
2022-12-25T15:03:16.469Z,14.92
2022-12-25T15:08:34.556Z,15.45
2022-12-25T15:11:04.060Z,15.35
2022-12-25T15:13:38.114Z,15.59
2022-12-25T15:16:08.099Z,15.44
2022-12-25T15:18:38.335Z,15.00
2022-12-25T15:23:55.053Z,15.31
2022-12-25T15:32:32.169Z,15.15
2022-12-25T15:35:08.126Z,15.24
2022-12-25T15:37:37.924Z,15.22
2022-12-25T15:40:10.608Z,15.19
2022-12-25T15:42:47.484Z,15.19
2022-12-25T15:45:37.587Z,14.90
2022-12-25T15:48:18.228Z,15.08
2022-12-25T15:50:48.300Z,14.74
2022-12-25T15:53:17.388Z,14.68
2022-12-25T15:56:08.161Z,14.58
2022-12-25T16:01:42.041Z,13.79
2022-12-25T16:04:14.580Z,14.01
2022-12-25T16:06:50.821Z,14.28
2022-12-25T16:09:20.052Z,14.39
2022-12-25T16:11:49.160Z,14.32
2022-12-25T16:14:17.343Z,14.39
2022-12-25T16:16:49.759Z,13.97
2022-12-25T16:19:19.231Z,13.58
2022-12-25T16:40:16.184Z,13.56
2022-12-25T16:42:43.959Z,13.60
2022-12-25T16:45:11.164Z,13.83
2022-12-25T16:47:38.131Z,13.98
2022-12-25T16:50:05.065Z,13.92
2022-12-25T16:52:31.634Z,13.44
2022-12-25T16:55:00.116Z,13.61
2022-12-25T16:57:27.945Z,13.13
2022-12-25T16:59:54.793Z,13.30
2022-12-25T17:05:09.512Z,13.79
2022-12-25T17:07:38.826Z,13.86
2022-12-25T17:10:08.251Z,13.39
2022-12-25T17:12:35.464Z,13.31
2022-12-25T17:15:04.702Z,13.13
2022-12-25T17:17:33.148Z,12.33
2022-12-25T17:19:59.997Z,10.95
2022-12-25T17:22:27.626Z,10.56
2022-12-25T17:24:57.806Z,10.74
2022-12-25T17:39:13.327Z,11.60
2022-12-25T17:41:43.817Z,12.58
2022-12-25T17:44:15.489Z,12.31
2022-12-25T17:46:43.036Z,12.93
2022-12-25T17:49:13.089Z,12.27
2022-12-25T17:51:47.694Z,11.99
2022-12-25T17:54:20.115Z,12.07
2022-12-25T17:56:49.087Z,12.74
2022-12-25T17:59:17.882Z,12.81
2022-12-25T18:01:44.671Z,13.33
2022-12-25T18:04:14.654Z,13.33
2022-12-25T18:06:41.293Z,12.91
2022-12-25T18:09:08.172Z,13.23
2022-12-25T18:11:36.768Z,12.87
2022-12-25T18:14:05.491Z,12.99
2022-12-25T18:16:32.396Z,12.79
2022-12-25T18:18:59.138Z,12.95
2022-12-25T18:21:26.648Z,12.05
2022-12-25T18:23:53.390Z,11.10
2022-12-25T18:26:20.142Z,11.43
2022-12-25T18:28:46.755Z,12.03
2022-12-25T18:31:13.677Z,12.53
2022-12-25T18:33:41.247Z,12.39
2022-12-25T18:36:14.230Z,12.49
2022-12-25T18:38:59.723Z,12.16
2022-12-25T18:41:45.090Z,12.05
2022-12-25T18:44:19.794Z,12.27
2022-12-25T18:46:47.351Z,12.79
2022-12-25T18:49:14.225Z,13.17
2022-12-25T18:51:41.138Z,13.06
2022-12-25T18:54:09.393Z,12.30
2022-12-25T18:56:37.228Z,12.14
2022-12-25T18:59:04.433Z,11.96
2022-12-25T19:01:31.068Z,11.66
2022-12-25T19:04:04.322Z,11.05
2022-12-25T19:06:32.329Z,10.64
2022-12-25T19:08:59.009Z,10.60
2022-12-25T19:11:25.859Z,10.85
2022-12-25T19:13:54.098Z,10.82
2022-12-25T19:19:20.170Z,11.75
2022-12-25T19:21:49.530Z,12.13
2022-12-25T19:24:18.204Z,12.35
2022-12-25T19:29:26.085Z,12.80
2022-12-25T19:31:52.627Z,12.38
2022-12-25T19:34:21.384Z,12.09
2022-12-25T19:36:50.317Z,11.47
2022-12-25T19:42:11.026Z,12.40
2022-12-25T19:45:02.314Z,12.32
2022-12-25T19:47:31.403Z,12.78
2022-12-25T19:55:35.698Z,11.82
2022-12-25T19:58:04.917Z,11.89
2022-12-25T20:00:31.612Z,11.62
2022-12-25T20:02:58.992Z,10.72
2022-12-25T20:05:25.708Z,11.49
2022-12-25T20:08:05.436Z,11.81
2022-12-25T20:13:45.160Z,11.10
2022-12-25T20:16:11.947Z,11.08
2022-12-25T20:18:38.514Z,11.45
2022-12-25T20:21:05.159Z,11.13
2022-12-25T20:32:15.752Z,12.88
2022-12-25T20:34:44.500Z,12.64
2022-12-25T20:37:11.840Z,12.94
2022-12-25T20:39:40.892Z,13.12
2022-12-25T20:54:30.351Z,12.49
2022-12-25T20:57:07.321Z,11.97
2022-12-25T20:59:37.576Z,10.94
2022-12-25T21:02:05.104Z,11.79
2022-12-25T21:04:34.844Z,11.41
2022-12-25T21:07:06.888Z,11.16
2022-12-25T21:09:34.731Z,11.28
2022-12-25T21:12:07.690Z,12.23
2022-12-25T21:14:37.381Z,10.87
2022-12-25T21:17:06.952Z,11.27
2022-12-25T21:19:34.628Z,10.79
2022-12-25T21:22:01.185Z,11.34
2022-12-25T21:24:32.128Z,11.47
2022-12-25T21:27:01.633Z,12.26
2022-12-25T21:29:28.445Z,12.48
2022-12-25T21:32:16.640Z,12.04
2022-12-25T21:34:49.251Z,12.73
2022-12-25T21:37:29.277Z,12.83
2022-12-25T21:39:56.143Z,12.57
2022-12-25T21:42:23.218Z,12.84
2022-12-25T21:44:49.979Z,12.90
2022-12-25T21:47:16.740Z,12.40
2022-12-25T21:49:43.557Z,12.81
2022-12-25T21:52:10.377Z,12.73
2022-12-25T22:07:49.513Z,11.77
2022-12-25T22:10:17.262Z,12.22
2022-12-25T22:12:45.675Z,12.67
2022-12-25T22:15:12.939Z,13.12
2022-12-25T22:17:42.280Z,12.99
2022-12-25T22:20:08.908Z,12.33
2022-12-25T22:22:36.399Z,12.05
2022-12-25T22:27:54.249Z,11.89
2022-12-25T22:30:24.938Z,11.49
2022-12-25T22:32:56.462Z,11.61
2022-12-25T22:35:23.106Z,10.81
2022-12-25T22:40:34.711Z,10.48
2022-12-25T22:43:01.539Z,10.47
2022-12-25T22:45:28.276Z,10.39
2022-12-25T22:47:54.985Z,10.38
2022-12-25T22:50:26.075Z,10.52
2022-12-25T22:52:54.557Z,10.79
2022-12-25T22:55:21.663Z,10.99
2022-12-25T22:57:48.554Z,11.67
2022-12-25T23:00:15.137Z,11.80
2022-12-25T23:02:42.154Z,11.95
2022-12-25T23:05:09.280Z,11.82
2022-12-25T23:07:35.932Z,10.92
2022-12-25T23:10:02.669Z,11.09
2022-12-25T23:12:29.199Z,10.94
2022-12-25T23:14:55.892Z,10.93
2022-12-25T23:17:22.541Z,11.64
2022-12-25T23:19:58.835Z,11.38
2022-12-25T23:22:31.420Z,11.55
2022-12-25T23:24:58.022Z,11.73
2022-12-25T23:27:24.582Z,11.90
2022-12-25T23:29:51.416Z,11.17
2022-12-25T23:32:17.936Z,11.78
2022-12-25T23:34:44.872Z,10.64
2022-12-25T23:37:11.728Z,10.77
2022-12-25T23:39:40.806Z,11.32
2022-12-25T23:42:07.341Z,10.88
2022-12-25T23:44:33.983Z,10.53
2022-12-25T23:47:03.061Z,10.73
2022-12-25T23:49:29.663Z,10.54
2022-12-25T23:51:57.056Z,10.67
2022-12-25T23:54:23.597Z,10.46
2022-12-25T23:56:50.154Z,11.10
2022-12-25T23:59:16.645Z,10.47
